createdAt,value
2023-03-05T00:02:20.773Z,6.95
2023-03-05T00:04:47.128Z,6.95
2023-03-05T00:07:14.248Z,6.92
2023-03-05T00:09:40.782Z,6.93
2023-03-05T00:12:07.330Z,6.93
2023-03-05T00:14:33.710Z,6.93
2023-03-05T00:17:00.086Z,6.91
2023-03-05T00:19:26.420Z,6.88
2023-03-05T00:21:52.771Z,6.87
2023-03-05T00:24:19.171Z,6.85
2023-03-05T00:26:46.066Z,6.80
2023-03-05T00:29:18.349Z,6.77
2023-03-05T00:31:45.093Z,6.74
2023-03-05T00:34:13.156Z,6.71
2023-03-05T00:36:40.646Z,6.71
2023-03-05T00:39:07.324Z,6.71
2023-03-05T00:41:33.623Z,6.68
2023-03-05T00:44:00.000Z,6.66
2023-03-05T00:46:29.023Z,6.65
2023-03-05T00:48:55.900Z,6.65
2023-03-05T00:51:22.320Z,6.62
2023-03-05T00:53:48.624Z,6.59
2023-03-05T00:56:15.330Z,6.55
2023-03-05T00:58:41.753Z,6.52
2023-03-05T01:01:08.209Z,6.48
2023-03-05T01:03:35.105Z,6.45
2023-03-05T01:06:03.671Z,6.39
2023-03-05T01:08:29.992Z,6.36
2023-03-05T01:10:56.739Z,6.33
2023-03-05T01:13:23.076Z,6.32
2023-03-05T01:15:50.958Z,6.30
2023-03-05T01:18:17.609Z,6.31
2023-03-05T01:20:44.417Z,6.32
2023-03-05T01:23:10.970Z,6.37
2023-03-05T01:25:37.518Z,6.38
2023-03-05T01:28:03.947Z,6.42
2023-03-05T01:30:30.551Z,6.42
2023-03-05T01:32:56.987Z,6.43
2023-03-05T01:35:24.826Z,6.45
2023-03-05T01:37:51.379Z,6.45
2023-03-05T01:40:19.925Z,6.46
2023-03-05T01:42:47.031Z,6.47
2023-03-05T01:45:14.581Z,6.45
2023-03-05T01:47:40.871Z,6.44
2023-03-05T01:50:09.105Z,6.47
2023-03-05T01:52:37.380Z,6.50
2023-03-05T01:55:05.886Z,6.54
2023-03-05T01:57:34.800Z,6.56
2023-03-05T02:00:03.872Z,6.58
2023-03-05T02:02:30.801Z,6.56
2023-03-05T02:05:29.449Z,6.58
2023-03-05T02:07:56.874Z,6.60
2023-03-05T02:10:25.766Z,6.59
2023-03-05T02:12:54.364Z,6.56
2023-03-05T02:15:21.217Z,6.56
2023-03-05T02:17:47.580Z,6.56
2023-03-05T02:20:18.412Z,6.58
2023-03-05T02:22:44.761Z,6.57
2023-03-05T02:25:12.790Z,6.53
2023-03-05T02:27:40.483Z,6.51
2023-03-05T02:30:07.029Z,6.47
2023-03-05T02:32:33.327Z,6.41
2023-03-05T02:34:59.711Z,6.40
2023-03-05T02:37:26.155Z,6.38
2023-03-05T02:39:52.484Z,6.37
2023-03-05T02:42:18.788Z,6.39
2023-03-05T02:44:45.088Z,6.40
2023-03-05T02:47:11.464Z,6.38
2023-03-05T02:49:37.849Z,6.38
2023-03-05T02:52:04.359Z,6.40
2023-03-05T02:54:30.717Z,6.40
2023-03-05T02:56:57.020Z,6.40
2023-03-05T02:59:23.394Z,6.38
2023-03-05T03:01:49.716Z,6.34
2023-03-05T03:04:16.033Z,6.34
2023-03-05T03:06:42.414Z,6.33
2023-03-05T03:09:08.813Z,6.32
2023-03-05T03:11:35.156Z,6.33
2023-03-05T03:14:01.489Z,6.33
2023-03-05T03:16:27.892Z,6.36
2023-03-05T03:18:54.213Z,6.36
2023-03-05T03:21:21.897Z,6.36
2023-03-05T03:23:48.345Z,6.37
2023-03-05T03:26:14.685Z,6.36
2023-03-05T03:28:41.172Z,6.36
2023-03-05T03:31:07.573Z,6.35
2023-03-05T03:33:34.031Z,6.37
2023-03-05T03:36:00.439Z,6.38
2023-03-05T03:38:26.856Z,6.35
2023-03-05T03:40:53.344Z,6.34
2023-03-05T03:43:19.638Z,6.33
2023-03-05T03:45:46.043Z,6.33
2023-03-05T03:48:12.536Z,6.31
2023-03-05T03:50:40.024Z,6.29
2023-03-05T03:53:06.783Z,6.27
2023-03-05T03:55:33.477Z,6.25
2023-03-05T03:57:59.923Z,6.24
2023-03-05T04:00:26.506Z,6.23
2023-03-05T04:02:52.937Z,6.21
2023-03-05T04:05:19.386Z,6.21
2023-03-05T04:07:45.717Z,6.15
2023-03-05T04:10:12.606Z,6.19
2023-03-05T04:12:38.976Z,6.15
2023-03-05T04:15:07.961Z,6.12
2023-03-05T04:17:34.293Z,6.11
2023-03-05T04:20:01.358Z,6.12
2023-03-05T04:22:27.756Z,6.13
2023-03-05T04:24:54.116Z,6.13
2023-03-05T04:27:20.463Z,6.12
2023-03-05T04:29:46.739Z,6.13
2023-03-05T04:32:13.261Z,6.16
2023-03-05T04:34:39.696Z,6.16
2023-03-05T04:37:06.068Z,6.11
2023-03-05T04:39:32.365Z,6.05
2023-03-05T04:41:59.693Z,6.06
2023-03-05T04:44:26.151Z,6.07
2023-03-05T04:46:52.681Z,6.09
2023-03-05T04:49:19.069Z,6.11
2023-03-05T04:51:45.471Z,6.11
2023-03-05T04:54:11.867Z,5.99
2023-03-05T04:56:38.135Z,6.11
2023-03-05T04:59:04.415Z,6.13
2023-03-05T05:01:30.822Z,6.13
2023-03-05T05:03:57.200Z,6.12
2023-03-05T05:06:23.837Z,6.11
2023-03-05T05:08:50.181Z,6.10
2023-03-05T05:11:16.534Z,6.12
2023-03-05T05:13:42.879Z,6.11
2023-03-05T05:16:09.773Z,6.11
2023-03-05T05:18:36.210Z,6.11
2023-03-05T05:21:02.611Z,6.12
2023-03-05T05:23:29.040Z,6.10
2023-03-05T05:25:56.123Z,6.06
2023-03-05T05:28:22.433Z,6.03
2023-03-05T05:30:48.696Z,6.02
2023-03-05T05:33:14.942Z,6.02
2023-03-05T05:35:41.225Z,6.03
2023-03-05T05:38:07.577Z,6.04
2023-03-05T05:40:33.964Z,6.03
2023-03-05T05:43:00.279Z,6.00
2023-03-05T05:45:26.749Z,6.01
2023-03-05T05:47:53.155Z,6.00
2023-03-05T05:50:20.044Z,5.96
2023-03-05T05:52:46.601Z,5.94
2023-03-05T05:55:13.035Z,5.92
2023-03-05T05:57:39.579Z,5.94
2023-03-05T06:00:07.592Z,5.93
2023-03-05T06:02:33.901Z,5.94
2023-03-05T06:05:00.211Z,5.93
2023-03-05T06:07:26.588Z,5.92
2023-03-05T06:09:52.867Z,5.92
2023-03-05T06:12:19.230Z,5.91
2023-03-05T06:14:45.562Z,5.92
2023-03-05T06:17:14.820Z,5.89
2023-03-05T06:19:43.292Z,5.90
2023-03-05T06:22:09.709Z,5.90
2023-03-05T06:24:37.001Z,5.89
2023-03-05T06:27:03.662Z,5.86
2023-03-05T06:29:30.000Z,5.85
2023-03-05T06:31:56.299Z,5.82
2023-03-05T06:34:22.648Z,5.83
2023-03-05T06:36:48.978Z,5.85
2023-03-05T06:39:15.314Z,5.86
2023-03-05T06:41:41.649Z,5.89
2023-03-05T06:44:07.943Z,5.90
2023-03-05T06:46:37.111Z,5.91
2023-03-05T06:49:03.900Z,5.96
2023-03-05T06:51:31.757Z,6.00
2023-03-05T06:54:16.950Z,6.04
2023-03-05T06:56:44.405Z,6.05
2023-03-05T06:59:12.201Z,6.05
2023-03-05T07:01:39.008Z,6.05
2023-03-05T07:04:06.731Z,6.07
2023-03-05T07:06:34.020Z,6.09
2023-03-05T07:09:06.451Z,6.13
2023-03-05T07:11:33.308Z,6.16
2023-03-05T07:14:00.054Z,6.16
2023-03-05T07:16:27.159Z,6.14
2023-03-05T07:18:55.125Z,6.14
2023-03-05T07:21:22.938Z,6.14
2023-03-05T07:23:49.777Z,6.13
2023-03-05T07:26:16.608Z,6.10
2023-03-05T07:28:43.372Z,6.09
2023-03-05T07:31:13.828Z,6.11
2023-03-05T07:33:40.146Z,6.15
2023-03-05T07:36:09.638Z,6.15
2023-03-05T07:38:36.319Z,6.13
2023-03-05T07:41:03.403Z,6.13
2023-03-05T07:43:29.752Z,6.15
2023-03-05T07:45:56.095Z,6.18
2023-03-05T07:48:22.528Z,6.22
2023-03-05T07:50:49.029Z,6.23
2023-03-05T07:53:18.376Z,6.26
2023-03-05T07:55:45.504Z,6.31
2023-03-05T07:58:12.524Z,6.38
2023-03-05T08:00:39.030Z,6.48
2023-03-05T08:03:05.328Z,6.53
2023-03-05T08:05:31.693Z,6.57
2023-03-05T08:07:58.119Z,6.64
2023-03-05T08:10:25.136Z,6.68
2023-03-05T08:12:51.417Z,6.73
2023-03-05T08:15:17.755Z,6.78
2023-03-05T08:17:44.300Z,6.83
2023-03-05T08:20:11.166Z,6.89
2023-03-05T08:22:37.712Z,6.96
2023-03-05T08:25:05.043Z,6.98
2023-03-05T08:27:31.383Z,7.05
2023-03-05T08:29:57.729Z,7.16
2023-03-05T08:32:24.124Z,7.23
2023-03-05T08:34:50.524Z,7.28
2023-03-05T08:37:16.981Z,7.29
2023-03-05T08:39:43.315Z,7.30
2023-03-05T08:42:09.656Z,7.25
2023-03-05T08:44:35.982Z,7.17
2023-03-05T08:47:02.259Z,7.17
2023-03-05T08:49:28.584Z,7.17
2023-03-05T08:51:54.870Z,7.18
2023-03-05T08:54:21.262Z,7.16
2023-03-05T08:56:47.626Z,7.12
2023-03-05T08:59:14.247Z,7.09
2023-03-05T09:01:40.779Z,7.11
2023-03-05T09:04:07.193Z,7.11
2023-03-05T09:06:34.436Z,7.16
2023-03-05T09:09:00.720Z,7.23
2023-03-05T09:11:26.994Z,7.33
2023-03-05T09:13:53.815Z,7.30
2023-03-05T09:16:20.579Z,7.48
2023-03-05T09:18:47.076Z,7.56
2023-03-05T09:21:15.196Z,7.66
2023-03-05T09:23:41.800Z,7.76
2023-03-05T09:26:09.100Z,7.81
2023-03-05T09:28:36.621Z,7.83
2023-03-05T09:31:03.859Z,7.87
2023-03-05T09:33:30.772Z,7.91
2023-03-05T09:35:57.148Z,7.95
2023-03-05T09:38:23.551Z,7.95
2023-03-05T09:40:58.408Z,8.00
2023-03-05T09:43:43.438Z,7.97
2023-03-05T09:46:17.917Z,7.88
2023-03-05T09:48:49.569Z,7.92
2023-03-05T09:51:24.411Z,7.96
2023-03-05T09:54:02.953Z,8.00
2023-03-05T09:56:31.972Z,8.05
2023-03-05T09:59:02.397Z,8.06
2023-03-05T10:01:34.621Z,7.95
2023-03-05T10:04:06.734Z,7.95
2023-03-05T10:06:37.705Z,7.95
2023-03-05T10:09:07.459Z,7.97
2023-03-05T10:11:45.982Z,8.00
2023-03-05T10:14:14.585Z,8.03
2023-03-05T10:16:44.013Z,8.07
2023-03-05T10:19:16.426Z,8.10
2023-03-05T10:21:50.387Z,8.29
2023-03-05T10:24:31.317Z,8.60
2023-03-05T10:27:01.488Z,9.01
2023-03-05T10:29:30.901Z,9.33
2023-03-05T10:32:04.697Z,9.49
2023-03-05T10:34:40.036Z,9.64
2023-03-05T10:37:06.330Z,9.66
2023-03-05T10:39:32.659Z,9.63
2023-03-05T10:42:02.416Z,9.55
2023-03-05T10:44:34.900Z,9.44
2023-03-05T10:47:01.480Z,9.36
2023-03-05T10:49:32.510Z,9.36
2023-03-05T10:52:09.683Z,9.32
2023-03-05T10:54:36.131Z,9.31
2023-03-05T10:57:16.173Z,9.46
2023-03-05T10:59:53.589Z,9.79
2023-03-05T11:02:22.853Z,10.04
2023-03-05T11:04:49.696Z,10.18
2023-03-05T11:07:16.110Z,10.20
2023-03-05T11:10:04.085Z,10.25
2023-03-05T11:12:32.061Z,10.32
2023-03-05T11:15:03.748Z,10.37
2023-03-05T11:17:30.084Z,10.36
2023-03-05T11:19:57.388Z,10.32
2023-03-05T11:22:24.453Z,10.24
2023-03-05T11:25:11.073Z,10.26
2023-03-05T11:27:39.048Z,10.30
2023-03-05T11:30:25.875Z,10.29
2023-03-05T11:33:12.528Z,10.12
2023-03-05T11:35:40.168Z,9.91
2023-03-05T11:38:14.445Z,9.84
2023-03-05T11:40:40.837Z,9.75
2023-03-05T11:43:13.242Z,9.67
2023-03-05T11:45:40.952Z,9.69
2023-03-05T11:48:20.031Z,9.77
2023-03-05T11:50:49.196Z,9.74
2023-03-05T11:53:24.553Z,9.74
2023-03-05T11:55:52.655Z,9.81
2023-03-05T11:58:28.567Z,9.89
2023-03-05T12:00:55.341Z,9.98
2023-03-05T12:03:24.423Z,10.02
2023-03-05T12:05:56.196Z,9.97
2023-03-05T12:08:26.824Z,9.88
2023-03-05T12:10:53.379Z,9.86
2023-03-05T12:13:35.431Z,9.86
2023-03-05T12:16:01.763Z,9.85
2023-03-05T12:18:37.213Z,9.95
2023-03-05T12:21:22.423Z,10.01
2023-03-05T12:23:50.776Z,10.05
2023-03-05T12:26:17.870Z,10.02
2023-03-05T12:28:45.849Z,10.09
2023-03-05T12:31:34.232Z,10.15
2023-03-05T12:34:20.545Z,10.23
2023-03-05T12:36:46.899Z,10.35
2023-03-05T12:39:33.168Z,10.55
2023-03-05T12:41:59.562Z,10.81
2023-03-05T12:44:25.919Z,10.98
2023-03-05T12:47:10.676Z,11.08
2023-03-05T12:49:40.425Z,11.20
2023-03-05T12:52:15.830Z,11.29
2023-03-05T12:54:42.318Z,11.37
2023-03-05T12:57:19.107Z,11.44
2023-03-05T12:59:51.491Z,11.52
2023-03-05T13:02:23.224Z,11.52
2023-03-05T13:04:52.578Z,11.44
2023-03-05T13:07:19.117Z,11.34
2023-03-05T13:09:56.217Z,11.30
2023-03-05T13:12:23.478Z,11.23
2023-03-05T13:14:58.616Z,11.20
2023-03-05T13:17:29.468Z,11.17
2023-03-05T13:19:56.074Z,11.18
2023-03-05T13:22:24.614Z,11.16
2023-03-05T13:25:12.958Z,11.07
2023-03-05T13:27:39.359Z,10.98
2023-03-05T13:30:05.983Z,10.89
2023-03-05T13:32:33.023Z,10.83
2023-03-05T13:35:00.402Z,10.71
2023-03-05T13:37:28.958Z,10.61
2023-03-05T13:39:57.111Z,10.56
2023-03-05T13:42:25.975Z,10.47
2023-03-05T13:44:58.223Z,10.37
2023-03-05T13:47:25.472Z,10.28
2023-03-05T13:49:55.929Z,10.23
2023-03-05T13:52:48.477Z,10.13
2023-03-05T13:55:16.874Z,10.12
2023-03-05T13:57:50.587Z,10.07
2023-03-05T14:00:49.357Z,9.93
2023-03-05T14:03:15.699Z,9.71
2023-03-05T14:05:45.474Z,9.75
2023-03-05T14:08:25.360Z,9.74
2023-03-05T14:10:52.445Z,9.74
2023-03-05T14:13:23.590Z,9.73
2023-03-05T14:16:08.113Z,9.72
2023-03-05T14:18:34.666Z,9.76
2023-03-05T14:21:03.157Z,9.68
2023-03-05T14:23:32.575Z,9.68
2023-03-05T14:26:19.911Z,9.65
2023-03-05T14:29:13.871Z,9.64
2023-03-05T14:31:52.697Z,9.61
2023-03-05T14:34:32.892Z,9.57
2023-03-05T14:37:00.609Z,9.58
2023-03-05T14:39:47.200Z,9.53
2023-03-05T14:42:27.314Z,9.54
2023-03-05T14:44:55.698Z,9.55
2023-03-05T14:47:25.279Z,9.57
2023-03-05T14:49:51.827Z,9.65
2023-03-05T14:52:19.921Z,9.72
2023-03-05T14:54:46.503Z,9.77
2023-03-05T14:57:18.789Z,9.78
2023-03-05T14:59:47.307Z,9.78
2023-03-05T15:02:15.081Z,9.80
2023-03-05T15:04:41.638Z,9.79
2023-03-05T15:07:11.264Z,9.82
2023-03-05T15:09:37.849Z,9.84
2023-03-05T15:12:04.294Z,9.88
2023-03-05T15:14:30.810Z,9.90
2023-03-05T15:16:57.171Z,9.88
2023-03-05T15:19:24.346Z,9.88
2023-03-05T15:21:50.638Z,9.92
2023-03-05T15:24:16.896Z,9.94
2023-03-05T15:26:43.246Z,9.91
2023-03-05T15:29:09.601Z,9.87
2023-03-05T15:31:38.705Z,9.87
2023-03-05T15:34:05.749Z,9.83
2023-03-05T15:36:33.575Z,9.83
2023-03-05T15:39:00.039Z,9.79
2023-03-05T15:41:26.420Z,9.69
2023-03-05T15:43:52.927Z,9.58
2023-03-05T15:46:19.368Z,9.58
2023-03-05T15:48:49.890Z,9.55
2023-03-05T15:51:17.313Z,9.53
2023-03-05T15:53:45.242Z,9.50
2023-03-05T15:56:18.674Z,9.49
2023-03-05T15:58:45.172Z,9.46
2023-03-05T16:01:11.887Z,9.45
2023-03-05T16:03:38.639Z,9.44
2023-03-05T16:06:05.495Z,9.40
2023-03-05T16:08:33.515Z,9.36
2023-03-05T16:11:00.126Z,9.38
2023-03-05T16:13:28.560Z,9.40
2023-03-05T16:15:55.319Z,9.42
2023-03-05T16:18:22.269Z,9.39
2023-03-05T16:20:48.806Z,9.37
2023-03-05T16:23:15.130Z,9.30
2023-03-05T16:25:41.533Z,9.18
2023-03-05T16:28:07.916Z,9.06
2023-03-05T16:30:34.373Z,8.92
2023-03-05T16:33:00.767Z,8.89
2023-03-05T16:35:27.109Z,8.88
2023-03-05T16:37:53.457Z,8.85
2023-03-05T16:40:19.813Z,8.80
2023-03-05T16:42:46.101Z,8.82
2023-03-05T16:45:12.800Z,8.78
2023-03-05T16:47:39.709Z,8.75
2023-03-05T16:50:06.653Z,8.74
2023-03-05T16:52:33.760Z,8.72
2023-03-05T16:55:00.116Z,8.68
2023-03-05T16:57:28.785Z,8.65
2023-03-05T16:59:55.611Z,8.63
2023-03-05T17:02:21.941Z,8.54
2023-03-05T17:04:49.454Z,8.45
2023-03-05T17:07:16.011Z,8.43
2023-03-05T17:09:42.371Z,8.38
2023-03-05T17:12:08.711Z,8.34
2023-03-05T17:14:35.023Z,8.32
2023-03-05T17:17:01.438Z,8.22
2023-03-05T17:19:27.815Z,8.14
2023-03-05T17:21:56.171Z,8.06
2023-03-05T17:24:22.953Z,7.98
2023-03-05T17:26:52.665Z,7.97
2023-03-05T17:29:19.919Z,7.96
2023-03-05T17:31:46.807Z,7.98
2023-03-05T17:34:13.437Z,7.93
2023-03-05T17:36:39.762Z,7.88
2023-03-05T17:39:06.092Z,7.89
2023-03-05T17:41:32.365Z,7.92
2023-03-05T17:43:58.642Z,7.95
2023-03-05T17:46:24.984Z,7.98
2023-03-05T17:48:51.323Z,7.95
2023-03-05T17:51:17.662Z,7.93
2023-03-05T17:53:44.489Z,7.92
2023-03-05T17:56:11.486Z,7.89
2023-03-05T17:58:38.228Z,7.88
2023-03-05T18:01:05.377Z,7.86
2023-03-05T18:03:31.910Z,7.87
2023-03-05T18:05:58.292Z,7.86
2023-03-05T18:08:24.647Z,7.86
2023-03-05T18:10:51.024Z,7.84
2023-03-05T18:13:17.458Z,7.79
2023-03-05T18:15:47.583Z,7.77
2023-03-05T18:18:18.321Z,7.72
2023-03-05T18:20:45.224Z,7.69
2023-03-05T18:23:11.809Z,7.69
2023-03-05T18:25:38.126Z,7.69
2023-03-05T18:28:06.321Z,7.66
2023-03-05T18:30:33.190Z,7.63
2023-03-05T18:32:59.664Z,7.63
2023-03-05T18:35:26.141Z,7.58
2023-03-05T18:37:52.441Z,7.57
2023-03-05T18:40:20.553Z,7.54
2023-03-05T18:42:46.965Z,7.58
2023-03-05T18:45:14.669Z,7.60
2023-03-05T18:47:44.067Z,7.63
2023-03-05T18:50:11.954Z,7.65
2023-03-05T18:52:38.314Z,7.65
2023-03-05T18:55:04.876Z,7.65
2023-03-05T18:57:31.154Z,7.62
2023-03-05T18:59:57.489Z,7.57
2023-03-05T19:02:23.840Z,7.58
2023-03-05T19:04:52.857Z,7.54
2023-03-05T19:07:19.266Z,7.53
2023-03-05T19:09:53.116Z,7.48
2023-03-05T19:12:20.265Z,7.46
2023-03-05T19:14:46.740Z,7.43
2023-03-05T19:17:13.174Z,7.38
2023-03-05T19:19:42.647Z,7.36
2023-03-05T19:22:10.280Z,7.37
2023-03-05T19:24:38.439Z,7.37
2023-03-05T19:27:10.920Z,7.26
2023-03-05T19:29:37.997Z,7.27
2023-03-05T19:32:04.848Z,7.22
2023-03-05T19:34:31.546Z,7.14
2023-03-05T19:36:58.007Z,7.11
2023-03-05T19:39:24.430Z,7.03
2023-03-05T19:41:51.052Z,7.00
2023-03-05T19:44:18.577Z,6.92
2023-03-05T19:46:45.093Z,6.82
2023-03-05T19:49:11.417Z,6.74
2023-03-05T19:51:39.756Z,6.64
2023-03-05T19:54:06.096Z,6.64
2023-03-05T19:56:32.390Z,6.61
2023-03-05T19:58:58.729Z,6.61
2023-03-05T20:01:26.403Z,6.65
2023-03-05T20:03:53.886Z,6.66
2023-03-05T20:06:20.746Z,6.70
2023-03-05T20:08:47.921Z,6.76
2023-03-05T20:11:22.983Z,6.82
2023-03-05T20:13:49.871Z,6.85
2023-03-05T20:16:17.429Z,6.87
2023-03-05T20:18:44.469Z,6.90
2023-03-05T20:21:10.960Z,6.91
2023-03-05T20:23:37.276Z,6.93
2023-03-05T20:26:04.670Z,6.92
2023-03-05T20:28:31.229Z,6.92
2023-03-05T20:30:58.926Z,6.91
2023-03-05T20:33:25.783Z,6.90
2023-03-05T20:35:53.336Z,6.91
2023-03-05T20:38:29.468Z,6.89
2023-03-05T20:40:58.966Z,6.87
2023-03-05T20:43:30.027Z,6.86
2023-03-05T20:45:59.352Z,6.88
2023-03-05T20:48:26.790Z,6.88
2023-03-05T20:50:53.457Z,6.88
2023-03-05T20:53:20.311Z,6.89
2023-03-05T20:55:46.670Z,6.88
2023-03-05T20:58:13.163Z,6.86
2023-03-05T21:00:40.128Z,6.81
2023-03-05T21:03:07.186Z,6.78
2023-03-05T21:05:34.980Z,6.75
2023-03-05T21:08:01.574Z,6.74
2023-03-05T21:10:28.145Z,6.72
2023-03-05T21:12:54.604Z,6.69
2023-03-05T21:15:22.836Z,6.67
2023-03-05T21:17:49.913Z,6.64
2023-03-05T21:20:18.264Z,6.60
2023-03-05T21:22:47.560Z,6.55
2023-03-05T21:25:20.914Z,6.51
2023-03-05T21:27:54.273Z,6.45
2023-03-05T21:30:21.481Z,6.38
2023-03-05T21:32:48.227Z,6.37
2023-03-05T21:35:16.043Z,6.35
2023-03-05T21:37:42.820Z,6.33
2023-03-05T21:40:14.106Z,6.30
2023-03-05T21:42:40.757Z,6.28
2023-03-05T21:45:08.546Z,6.26
2023-03-05T21:47:34.832Z,6.15
2023-03-05T21:50:04.533Z,6.25
2023-03-05T21:52:30.945Z,6.23
2023-03-05T21:54:57.999Z,6.21
2023-03-05T21:57:25.197Z,6.22
2023-03-05T21:59:51.897Z,6.21
2023-03-05T22:02:19.250Z,6.19
2023-03-05T22:04:45.982Z,6.19
2023-03-05T22:07:12.943Z,6.19
2023-03-05T22:09:39.391Z,6.23
2023-03-05T22:12:07.035Z,6.24
2023-03-05T22:14:33.353Z,6.24
2023-03-05T22:17:02.068Z,6.25
2023-03-05T22:19:29.761Z,6.23
2023-03-05T22:21:57.535Z,6.17
2023-03-05T22:24:25.502Z,6.15
2023-03-05T22:26:51.910Z,6.15
2023-03-05T22:29:18.429Z,6.14
2023-03-05T22:31:44.922Z,6.14
2023-03-05T22:34:11.220Z,6.10
2023-03-05T22:36:37.521Z,6.05
2023-03-05T22:39:04.455Z,6.00
2023-03-05T22:41:30.799Z,5.96
2023-03-05T22:43:57.102Z,5.91
2023-03-05T22:46:25.211Z,5.94
2023-03-05T22:48:52.164Z,5.92
2023-03-05T22:51:18.994Z,5.91
2023-03-05T22:53:45.853Z,5.92
2023-03-05T22:56:13.546Z,5.95
2023-03-05T22:58:40.178Z,5.96
2023-03-05T23:01:20.024Z,5.97
2023-03-05T23:03:47.150Z,5.97
2023-03-05T23:06:13.535Z,5.95
2023-03-05T23:08:39.850Z,5.89
2023-03-05T23:11:10.476Z,5.86
2023-03-05T23:13:36.836Z,5.84
2023-03-05T23:16:03.295Z,5.81
2023-03-05T23:18:29.652Z,5.78
2023-03-05T23:20:56.187Z,5.74
2023-03-05T23:23:25.164Z,5.71
2023-03-05T23:25:52.030Z,5.68
2023-03-05T23:28:19.460Z,5.60
2023-03-05T23:30:45.774Z,5.58
2023-03-05T23:33:16.505Z,5.56
2023-03-05T23:35:49.189Z,5.52
2023-03-05T23:38:15.726Z,5.50
2023-03-05T23:40:43.645Z,5.51
2023-03-05T23:43:10.378Z,5.50
2023-03-05T23:45:37.158Z,5.50
2023-03-05T23:48:03.716Z,5.47
2023-03-05T23:50:31.829Z,5.44
2023-03-05T23:53:00.642Z,5.44
2023-03-05T23:55:30.802Z,5.43
2023-03-05T23:57:57.172Z,5.43
